Terminal Aerodrome Forecast
Issued by NWS Cleveland, OH

Home | Current Version | Previous Version | Text Only | Print | Product List | Glossary Off
Versions: 1 2 3 4 5 6 7 8 9 10 11 12 13 14 15 16 17 18 19 20 21 22 23

000
FTUS41 KCLE 160300 AAA
TAFYNG
TAF AMD
KYNG 160356Z 1604/1624 02005KT 2SM RA BR BKN007 OVC025
      TEMPO 1604/1607 34004KT 4SM -RA BR SCT007 BKN018
     FM160700 34004KT 4SM BR OVC005
     FM161400 33004KT P6SM BKN012
     FM161900 30006KT P6SM BKN030=

USA.gov is the U.S. government's official web portal to all federal, state and local government web resources and services.